Time;durP1;ratioP1;P1;durP2;ratioP2;P2;SDS_P1;SDS_P2;PMS_P1;PMS_P2;Temp;Humidity;BMP_temperature;BMP_pressure;BME280_temperature;BME280_humidity;BME280_pressure;Samples;Min_cycle;Max_cycle;Signal;HPM_P1;HPM_P2
2021/04/08 00:02:17;;;;;;;10.52;1.45;;;2.00;96.10;;;;;;5047549;28;20037;-79
2021/04/08 00:04:42;;;;;;;14.38;1.80;;;2.00;96.30;;;;;;5047226;28;20140;-79
2021/04/08 00:07:08;;;;;;;9.50;1.20;;;1.90;96.30;;;;;;4994913;28;20120;-79
2021/04/08 00:09:34;;;;;;;7.95;1.17;;;1.90;96.40;;;;;;5028266;28;20688;-79
2021/04/08 00:12:00;;;;;;;10.30;1.13;;;1.90;96.60;;;;;;5032984;28;20033;-79
2021/04/08 00:14:27;;;;;;;8.13;1.02;;;1.80;96.70;;;;;;5047670;28;20498;-79
2021/04/08 00:16:53;;;;;;;16.98;1.45;;;1.80;96.80;;;;;;5027285;28;20037;-79
2021/04/08 00:19:20;;;;;;;11.95;1.60;;;1.80;97.00;;;;;;5031056;28;20033;-79
2021/04/08 00:21:45;;;;;;;5.28;1.27;;;1.80;97.10;;;;;;5027797;28;20052;-79
2021/04/08 00:24:12;;;;;;;11.38;1.13;;;1.80;97.40;;;;;;5022985;28;20045;-79
2021/04/08 00:26:38;;;;;;;11.25;1.63;;;1.80;97.20;;;;;;5046127;28;20067;-79
2021/04/08 00:29:04;;;;;;;7.15;1.23;;;1.80;97.10;;;;;;5049082;28;20041;-79
2021/04/08 00:31:31;;;;;;;13.30;1.25;;;1.80;97.20;;;;;;5030741;28;20122;-79
2021/04/08 00:33:57;;;;;;;14.75;2.05;;;1.80;97.40;;;;;;5038832;28;20040;-79
2021/04/08 00:36:22;;;;;;;10.73;1.88;;;1.90;97.50;;;;;;5046985;28;20043;-79
2021/04/08 00:38:48;;;;;;;14.98;1.67;;;1.90;97.40;;;;;;5047774;28;20505;-79
2021/04/08 00:41:14;;;;;;;11.02;1.25;;;1.90;97.50;;;;;;5047165;28;20050;-79
2021/04/08 00:43:40;;;;;;;14.98;1.35;;;2.00;96.90;;;;;;5047208;28;20128;-79
2021/04/08 00:46:06;;;;;;;12.98;1.10;;;2.10;96.60;;;;;;5047263;28;20033;-79
2021/04/08 00:48:32;;;;;;;11.63;1.30;;;2.10;96.70;;;;;;5020640;28;20038;-79
2021/04/08 00:50:58;;;;;;;10.13;1.90;;;2.20;96.20;;;;;;5029886;28;20848;-79
2021/04/08 00:53:27;;;;;;;10.45;1.20;;;2.20;96.10;;;;;;5046849;28;20120;-79
2021/04/08 00:55:55;;;;;;;6.70;1.70;;;2.20;96.10;;;;;;5048159;28;20040;-79
2021/04/08 00:58:22;;;;;;;7.72;1.10;;;2.20;96.00;;;;;;5047356;28;20499;-79
2021/04/08 01:00:48;;;;;;;5.25;0.98;;;2.20;96.00;;;;;;5048528;28;20028;-79
2021/04/08 01:03:16;;;;;;;8.93;1.00;;;2.20;95.50;;;;;;5028701;28;20124;-79
2021/04/08 01:05:42;;;;;;;9.80;1.23;;;2.20;95.70;;;;;;5030201;28;20053;-79
2021/04/08 01:08:09;;;;;;;7.68;0.80;;;2.20;95.70;;;;;;5046121;28;20049;-78
2021/04/08 01:10:35;;;;;;;5.40;1.40;;;2.10;95.40;;;;;;5048341;28;20111;-79
2021/04/08 01:13:08;;;;;;;7.35;1.05;;;2.10;94.50;;;;;;5046327;28;20045;-78
2021/04/08 01:15:34;;;;;;;8.25;1.58;;;2.00;95.10;;;;;;5048439;28;20048;-79
2021/04/08 01:18:40;;;;;;;6.88;1.30;;;2.00;94.70;;;;;;5043272;28;20838;-79
2021/04/08 01:21:08;;;;;;;6.35;0.90;;;2.10;94.50;;;;;;5032417;28;20040;-79
2021/04/08 01:23:46;;;;;;;4.22;1.05;;;2.10;94.80;;;;;;5045470;28;20131;-79
2021/04/08 01:26:37;;;;;;;7.00;0.98;;;2.10;94.80;;;;;;5046731;28;20397;-79
2021/04/08 01:29:32;;;;;;;8.77;1.25;;;2.10;94.70;;;;;;5046996;28;20086;-79
2021/04/08 01:32:02;;;;;;;13.30;1.60;;;2.20;95.00;;;;;;5046914;28;20578;-79
2021/04/08 01:34:31;;;;;;;3.85;0.90;;;2.20;95.50;;;;;;5030788;28;20456;-79
2021/04/08 01:37:01;;;;;;;6.95;1.40;;;2.20;95.60;;;;;;5029658;28;20033;-79
2021/04/08 01:39:27;;;;;;;8.70;1.40;;;2.30;95.80;;;;;;5030686;28;20040;-79
2021/04/08 01:41:56;;;;;;;7.70;1.00;;;2.20;95.80;;;;;;5013312;28;20060;-79
2021/04/08 01:44:23;;;;;;;9.43;0.95;;;2.20;95.90;;;;;;5048323;28;20033;-79
2021/04/08 01:46:56;;;;;;;8.75;1.60;;;2.20;96.00;;;;;;5046343;28;20037;-79
2021/04/08 01:49:25;;;;;;;12.15;1.00;;;2.10;96.00;;;;;;5046509;28;20116;-79
2021/04/08 01:51:52;;;;;;;8.38;1.15;;;2.10;95.90;;;;;;5063316;28;20551;-79
2021/04/08 01:54:20;;;;;;;10.88;1.52;;;2.10;96.10;;;;;;5046614;28;20032;-79
2021/04/08 01:56:48;;;;;;;11.93;1.75;;;2.00;96.10;;;;;;5048434;28;20041;-79
2021/04/08 01:59:15;;;;;;;20.50;1.80;;;2.00;96.20;;;;;;5050353;28;20069;-79
2021/04/08 02:01:44;;;;;;;19.23;2.58;;;2.00;96.40;;;;;;5033607;28;20047;-79
2021/04/08 02:04:12;;;;;;;7.88;1.40;;;2.00;96.40;;;;;;5049887;28;20048;-79
2021/04/08 02:06:41;;;;;;;10.60;1.40;;;2.00;96.50;;;;;;5049738;28;20087;-79
2021/04/08 02:09:07;;;;;;;12.73;1.40;;;2.00;96.70;;;;;;5049914;28;20037;-79
2021/04/08 02:11:36;;;;;;;18.30;2.28;;;2.00;96.90;;;;;;5033710;28;20044;-79
2021/04/08 02:14:04;;;;;;;13.00;1.60;;;2.10;96.90;;;;;;5051080;28;20098;-79
2021/04/08 02:16:30;;;;;;;9.40;1.55;;;2.10;96.90;;;;;;5049780;28;20033;-79
2021/04/08 02:18:58;;;;;;;12.02;1.88;;;2.10;97.00;;;;;;5032234;28;20028;-79
2021/04/08 02:21:25;;;;;;;13.18;2.10;;;2.10;97.00;;;;;;5066781;28;20455;-79
2021/04/08 02:23:52;;;;;;;8.93;1.23;;;2.10;96.90;;;;;;5049738;28;20056;-79
2021/04/08 02:26:19;;;;;;;9.95;1.88;;;2.10;97.00;;;;;;5017413;28;20087;-79
2021/04/08 02:28:46;;;;;;;13.70;1.25;;;2.10;96.80;;;;;;5013295;28;20124;-79
2021/04/08 02:31:12;;;;;;;6.78;1.33;;;2.10;96.90;;;;;;5031308;28;20493;-79
2021/04/08 02:33:39;;;;;;;12.50;1.40;;;2.10;97.00;;;;;;5021918;28;20045;-79
2021/04/08 02:36:05;;;;;;;13.73;1.35;;;2.20;97.00;;;;;;5033175;28;20118;-79
2021/04/08 02:38:34;;;;;;;11.55;1.40;;;2.20;96.90;;;;;;5032542;28;20128;-79
2021/04/08 02:41:03;;;;;;;10.00;2.13;;;2.20;96.90;;;;;;5050680;28;20047;-79
2021/04/08 02:43:29;;;;;;;10.70;1.80;;;2.20;96.90;;;;;;5049146;28;20047;-79
2021/04/08 02:45:54;;;;;;;13.80;1.40;;;2.20;96.90;;;;;;5049693;28;20045;-79
2021/04/08 02:48:22;;;;;;;8.68;1.33;;;2.30;97.00;;;;;;5048701;28;20040;-80
2021/04/08 02:50:58;;;;;;;17.38;2.10;;;2.30;97.10;;;;;;5046096;28;20064;-79
2021/04/08 02:53:54;;;;;;;11.82;2.10;;;2.30;97.00;;;;;;5050225;28;20073;-79
2021/04/08 02:56:32;;;;;;;10.98;1.30;;;2.30;96.40;;;;;;5050543;28;20033;-79
2021/04/08 02:59:08;;;;;;;13.30;1.85;;;2.30;96.20;;;;;;5049950;28;20037;-79
2021/04/08 03:01:43;;;;;;;11.85;1.33;;;2.30;95.60;;;;;;5048889;28;20033;-78
2021/04/08 03:04:13;;;;;;;6.93;1.08;;;2.40;95.60;;;;;;5032314;28;20060;-79
2021/04/08 03:06:42;;;;;;;5.97;1.27;;;2.50;95.50;;;;;;5032290;28;20044;-79
2021/04/08 03:09:08;;;;;;;9.60;1.88;;;2.50;94.40;;;;;;5047524;28;20477;-79
2021/04/08 03:11:35;;;;;;;10.45;1.33;;;2.60;94.00;;;;;;5033525;28;20569;-79
2021/04/08 03:14:06;;;;;;;4.50;0.70;;;2.60;93.10;;;;;;5058975;28;20036;-79
2021/04/08 03:16:38;;;;;;;7.60;1.23;;;2.70;92.50;;;;;;5045677;28;20571;-79
2021/04/08 03:19:06;;;;;;;8.75;0.60;;;2.70;92.00;;;;;;5046617;28;20036;-79
2021/04/08 03:21:33;;;;;;;8.27;1.05;;;2.70;90.90;;;;;;5045824;28;20126;-79
2021/04/08 03:24:00;;;;;;;3.85;0.80;;;2.80;90.60;;;;;;5053466;28;20041;-79
2021/04/08 03:26:27;;;;;;;4.65;0.70;;;2.80;91.10;;;;;;5048030;28;20492;-79
2021/04/08 03:28:54;;;;;;;7.00;1.20;;;2.80;91.40;;;;;;5050230;28;20117;-79
2021/04/08 03:31:21;;;;;;;9.23;1.80;;;2.80;91.00;;;;;;5047902;28;20049;-79
2021/04/08 03:33:48;;;;;;;9.48;1.02;;;2.80;91.80;;;;;;5031837;28;20067;-79
2021/04/08 03:36:16;;;;;;;2.80;0.63;;;2.70;91.40;;;;;;5031711;28;20420;-79
2021/04/08 03:38:42;;;;;;;7.55;1.25;;;2.70;92.30;;;;;;5031068;28;20041;-79
2021/04/08 03:41:09;;;;;;;3.85;0.63;;;2.70;92.00;;;;;;5048494;28;20045;-78
2021/04/08 03:43:36;;;;;;;5.63;0.95;;;2.60;92.90;;;;;;5031601;28;20065;-79
2021/04/08 03:46:04;;;;;;;8.65;1.30;;;2.60;93.10;;;;;;5048555;28;20037;-79
2021/04/08 03:48:32;;;;;;;9.82;0.85;;;2.60;93.60;;;;;;5048931;28;20128;-79
2021/04/08 03:51:00;;;;;;;9.52;0.90;;;2.60;93.90;;;;;;5035985;28;20061;-79
2021/04/08 03:53:26;;;;;;;9.00;0.98;;;2.60;94.00;;;;;;5028543;28;20107;-79
2021/04/08 03:55:54;;;;;;;5.43;0.80;;;2.60;93.80;;;;;;5048339;28;20049;-79
2021/04/08 03:58:20;;;;;;;5.43;1.17;;;2.60;94.20;;;;;;5047559;28;20063;-78
2021/04/08 04:00:47;;;;;;;4.68;0.68;;;2.60;94.50;;;;;;5031472;28;20037;-79
2021/04/08 04:03:15;;;;;;;6.13;0.93;;;2.60;94.70;;;;;;5049189;28;20037;-79
2021/04/08 04:05:45;;;;;;;9.07;1.63;;;2.60;94.70;;;;;;5047616;28;20049;-79
2021/04/08 04:08:11;;;;;;;9.27;2.10;;;2.60;94.60;;;;;;5047570;28;20037;-79
2021/04/08 04:10:39;;;;;;;10.57;1.42;;;2.60;94.70;;;;;;5039857;28;20037;-79
2021/04/08 04:13:05;;;;;;;7.15;1.67;;;2.60;94.90;;;;;;5029239;28;20038;-79
2021/04/08 04:15:35;;;;;;;11.93;1.90;;;2.60;95.00;;;;;;5060557;28;20051;-78
2021/04/08 04:18:05;;;;;;;8.57;1.08;;;2.60;95.10;;;;;;5047948;28;20037;-79
2021/04/08 04:20:31;;;;;;;6.50;1.17;;;2.70;95.20;;;;;;5047198;28;20052;-79
2021/04/08 04:22:57;;;;;;;5.43;0.80;;;2.70;95.20;;;;;;5031669;28;20037;-79
2021/04/08 04:25:23;;;;;;;3.35;0.80;;;2.70;94.90;;;;;;5030754;28;20094;-79
2021/04/08 04:27:50;;;;;;;4.72;0.85;;;2.70;95.00;;;;;;5047489;28;20044;-79
2021/04/08 04:30:17;;;;;;;5.85;1.30;;;2.60;95.00;;;;;;5021621;28;20039;-79
2021/04/08 04:32:43;;;;;;;6.25;1.02;;;2.60;95.00;;;;;;5047364;28;20481;-79
2021/04/08 04:35:10;;;;;;;6.15;1.00;;;2.50;95.30;;;;;;5046950;28;20492;-79
2021/04/08 04:37:36;;;;;;;4.90;0.93;;;2.50;95.50;;;;;;5047935;28;20115;-79
2021/04/08 04:40:03;;;;;;;7.78;1.48;;;2.50;95.70;;;;;;5030392;28;20124;-79
2021/04/08 04:42:29;;;;;;;7.38;1.00;;;2.50;95.60;;;;;;5025520;28;20042;-79
2021/04/08 04:44:55;;;;;;;4.32;1.65;;;2.50;95.70;;;;;;5056512;28;20045;-78
2021/04/08 04:47:21;;;;;;;7.93;1.13;;;2.60;95.70;;;;;;5047259;28;20120;-79
2021/04/08 04:49:48;;;;;;;8.30;1.60;;;2.60;95.50;;;;;;5045109;28;20044;-79
2021/04/08 04:52:14;;;;;;;10.13;1.30;;;2.60;95.60;;;;;;5046038;28;20033;-79
2021/04/08 04:54:40;;;;;;;8.55;1.70;;;2.60;95.50;;;;;;5039308;28;20420;-79
2021/04/08 04:57:06;;;;;;;5.97;1.08;;;2.60;95.50;;;;;;5048880;28;20111;-79
2021/04/08 04:59:32;;;;;;;9.68;1.55;;;2.60;95.70;;;;;;5046036;28;20040;-79
2021/04/08 05:01:58;;;;;;;7.22;1.25;;;2.60;95.60;;;;;;5045598;28;20482;-79
2021/04/08 05:04:24;;;;;;;9.77;1.55;;;2.60;95.70;;;;;;5030612;28;20053;-79
2021/04/08 05:06:49;;;;;;;7.97;1.17;;;2.60;95.90;;;;;;5047274;28;20049;-79
2021/04/08 05:09:15;;;;;;;5.75;1.30;;;2.60;96.00;;;;;;5047108;28;20500;-79
2021/04/08 05:11:41;;;;;;;6.88;1.17;;;2.60;96.00;;;;;;5043608;28;20100;-79
2021/04/08 05:14:07;;;;;;;12.32;1.67;;;2.60;95.90;;;;;;5010980;28;20128;-79
2021/04/08 05:16:33;;;;;;;7.85;1.80;;;2.60;95.80;;;;;;5041022;28;20038;-79
2021/04/08 05:18:58;;;;;;;13.75;1.88;;;2.60;96.00;;;;;;5061548;28;20091;-78
2021/04/08 05:21:24;;;;;;;8.93;1.20;;;2.60;96.00;;;;;;5047144;28;20801;-80
2021/04/08 05:23:50;;;;;;;4.22;0.95;;;2.60;95.90;;;;;;5047197;28;20488;-79
2021/04/08 05:26:16;;;;;;;9.68;1.45;;;2.70;95.90;;;;;;5046435;28;20068;-80
2021/04/08 05:28:42;;;;;;;6.32;1.42;;;2.60;95.70;;;;;;5031178;28;20025;-79
2021/04/08 05:31:08;;;;;;;10.40;1.35;;;2.60;96.10;;;;;;5047482;28;20511;-79
2021/04/08 05:33:34;;;;;;;7.75;1.05;;;2.70;95.70;;;;;;5032865;28;20075;-80
2021/04/08 05:36:00;;;;;;;7.95;1.50;;;2.70;95.60;;;;;;5032901;28;20052;-79
2021/04/08 05:38:27;;;;;;;11.63;1.48;;;2.70;95.70;;;;;;5049473;28;20029;-79
2021/04/08 05:40:53;;;;;;;6.20;1.20;;;2.70;96.00;;;;;;5032737;28;20041;-79
2021/04/08 05:43:18;;;;;;;4.80;1.00;;;2.70;95.60;;;;;;5049773;28;20485;-80
2021/04/08 05:45:45;;;;;;;5.05;1.50;;;2.70;95.70;;;;;;5050750;28;20488;-79
2021/04/08 05:48:13;;;;;;;3.65;1.10;;;2.70;95.80;;;;;;5049296;28;20029;-79
2021/04/08 05:50:40;;;;;;;6.43;1.00;;;2.70;95.60;;;;;;5033323;28;20037;-79
2021/04/08 05:53:06;;;;;;;6.47;1.50;;;2.70;95.70;;;;;;5033553;28;20047;-80
2021/04/08 05:55:32;;;;;;;5.97;1.30;;;2.80;95.90;;;;;;5047153;28;20116;-79
2021/04/08 05:57:57;;;;;;;9.70;1.40;;;2.80;95.40;;;;;;5049949;28;20037;-79
2021/04/08 06:00:23;;;;;;;6.82;1.10;;;2.80;95.50;;;;;;5049833;28;20032;-79
2021/04/08 06:02:49;;;;;;;6.28;1.30;;;2.90;95.50;;;;;;5049810;28;20032;-79
2021/04/08 06:05:15;;;;;;;10.05;1.65;;;2.90;95.30;;;;;;5066076;28;20574;-80
2021/04/08 06:07:42;;;;;;;7.00;1.83;;;2.90;95.10;;;;;;5033271;28;20098;-80
2021/04/08 06:10:14;;;;;;;8.25;1.33;;;3.00;95.20;;;;;;5047413;28;20497;-80
2021/04/08 06:12:41;;;;;;;7.38;2.25;;;3.00;95.20;;;;;;5033581;28;20132;-80
2021/04/08 06:15:09;;;;;;;7.82;1.38;;;3.00;95.20;;;;;;5033713;28;20033;-80
2021/04/08 06:17:35;;;;;;;11.60;1.50;;;3.00;95.10;;;;;;5004900;28;20045;-80
2021/04/08 06:20:02;;;;;;;9.98;1.40;;;3.10;95.10;;;;;;5013577;28;20195;-79
2021/04/08 06:22:28;;;;;;;8.38;1.60;;;3.10;95.20;;;;;;5030546;28;20033;-80
2021/04/08 06:24:54;;;;;;;9.85;1.38;;;3.00;95.10;;;;;;5046644;28;20038;-80
2021/04/08 06:27:20;;;;;;;7.60;1.13;;;3.00;94.90;;;;;;5046393;28;20041;-80
2021/04/08 06:29:46;;;;;;;8.75;1.20;;;3.10;95.40;;;;;;5013685;28;20045;-79
2021/04/08 06:32:11;;;;;;;10.20;1.13;;;3.00;95.30;;;;;;5063558;28;20029;-80
2021/04/08 06:34:37;;;;;;;7.20;1.48;;;3.10;95.70;;;;;;5026381;28;20037;-80
2021/04/08 06:37:04;;;;;;;8.48;1.75;;;3.00;95.40;;;;;;5045942;28;20048;-79
2021/04/08 06:39:34;;;;;;;5.60;1.40;;;3.00;95.40;;;;;;5029791;28;20045;-79
2021/04/08 06:42:00;;;;;;;9.57;1.70;;;3.10;95.30;;;;;;5029464;28;20477;-80
2021/04/08 06:44:28;;;;;;;14.98;1.83;;;3.10;95.30;;;;;;5046027;28;20044;-81
2021/04/08 06:46:58;;;;;;;9.32;1.42;;;3.10;95.50;;;;;;5028239;28;20033;-80
2021/04/08 06:49:34;;;;;;;5.68;1.30;;;3.20;95.50;;;;;;5032200;28;20394;-80
2021/04/08 06:52:01;;;;;;;10.88;1.50;;;3.30;95.30;;;;;;5033246;28;20045;-80
2021/04/08 06:54:28;;;;;;;6.18;1.17;;;3.40;95.20;;;;;;5032641;28;20477;-80
2021/04/08 06:56:54;;;;;;;7.10;1.25;;;3.60;95.30;;;;;;5032054;28;20131;-80
2021/04/08 06:59:20;;;;;;;13.70;2.30;;;3.80;95.10;;;;;;5049190;28;20435;-80
2021/04/08 07:01:46;;;;;;;11.15;1.50;;;3.90;94.90;;;;;;5049531;28;20051;-80
2021/04/08 07:04:14;;;;;;;12.10;2.75;;;4.00;94.80;;;;;;5047756;28;20033;-80
2021/04/08 07:06:40;;;;;;;16.48;2.75;;;4.10;94.90;;;;;;5063755;28;20099;-81
2021/04/08 07:09:09;;;;;;;6.20;1.08;;;4.20;94.60;;;;;;5049211;28;20103;-80
2021/04/08 07:11:36;;;;;;;11.48;1.50;;;4.20;94.60;;;;;;5031069;28;20047;-80
2021/04/08 07:14:06;;;;;;;12.52;2.10;;;4.30;94.50;;;;;;5030990;28;20484;-80
2021/04/08 07:16:32;;;;;;;9.52;1.73;;;4.30;94.60;;;;;;5048405;28;20401;-80
2021/04/08 07:18:58;;;;;;;4.60;1.15;;;4.40;94.80;;;;;;5031420;28;20041;-80
2021/04/08 07:21:32;;;;;;;8.05;1.90;;;4.40;94.90;;;;;;5048831;28;20114;-80
2021/04/08 07:24:21;;;;;;;8.45;1.60;;;4.50;94.70;;;;;;5047627;28;20029;-81
2021/04/08 07:26:50;;;;;;;11.52;1.77;;;4.50;94.50;;;;;;5045931;28;20064;-80
2021/04/08 07:29:17;;;;;;;11.23;1.23;;;4.50;94.60;;;;;;5012953;28;20109;-81
2021/04/08 07:31:43;;;;;;;6.18;1.52;;;4.50;94.50;;;;;;5045702;28;20060;-80
2021/04/08 07:34:09;;;;;;;8.27;1.73;;;4.60;94.40;;;;;;5044259;28;20033;-80
2021/04/08 07:36:37;;;;;;;9.73;1.70;;;4.50;94.30;;;;;;5027971;28;20041;-81
2021/04/08 07:39:15;;;;;;;6.18;1.45;;;4.50;94.20;;;;;;5029520;28;20136;-80
2021/04/08 07:41:41;;;;;;;10.38;1.80;;;4.50;94.30;;;;;;5013493;28;20656;-80
2021/04/08 07:44:12;;;;;;;10.82;1.40;;;4.50;94.40;;;;;;5013278;28;20123;-80
2021/04/08 07:46:40;;;;;;;10.25;1.30;;;4.50;94.60;;;;;;5030127;28;20037;-80
2021/04/08 07:49:32;;;;;;;13.40;1.70;;;4.50;94.60;;;;;;5030912;28;20036;-80
2021/04/08 07:52:14;;;;;;;10.40;1.77;;;4.60;94.40;;;;;;5042699;28;20036;-80
2021/04/08 07:54:40;;;;;;;4.75;1.00;;;4.60;94.60;;;;;;5031023;28;20119;-79
2021/04/08 07:57:06;;;;;;;5.07;1.30;;;4.60;94.30;;;;;;5015222;28;20044;-80
2021/04/08 07:59:33;;;;;;;12.20;2.20;;;4.70;94.50;;;;;;5011992;28;20401;-80
2021/04/08 08:02:00;;;;;;;11.32;1.58;;;4.80;94.30;;;;;;5045613;28;20053;-80
2021/04/08 08:04:27;;;;;;;6.68;1.52;;;4.80;94.40;;;;;;5028182;28;20042;-80
2021/04/08 08:06:54;;;;;;;8.45;1.73;;;4.90;93.90;;;;;;5044432;28;20045;-80
2021/04/08 08:09:23;;;;;;;10.88;2.03;;;4.90;93.60;;;;;;5029008;28;20092;-80
2021/04/08 08:11:51;;;;;;;9.32;1.58;;;5.00;93.80;;;;;;5028915;28;20041;-80
2021/04/08 08:14:30;;;;;;;6.55;1.33;;;5.00;93.90;;;;;;5047747;28;20037;-80
2021/04/08 08:17:04;;;;;;;12.50;2.15;;;5.10;94.10;;;;;;5011048;28;20053;-80
2021/04/08 08:19:36;;;;;;;9.02;1.85;;;5.20;94.00;;;;;;5028065;28;20056;-80
2021/04/08 08:22:03;;;;;;;5.43;1.30;;;5.30;94.00;;;;;;5028217;28;20532;-80
2021/04/08 08:24:30;;;;;;;7.30;1.73;;;5.40;93.80;;;;;;5027764;28;20405;-79
2021/04/08 08:26:58;;;;;;;9.95;1.88;;;5.50;93.50;;;;;;5028834;28;20044;-79
2021/04/08 08:29:30;;;;;;;10.65;1.90;;;5.60;93.40;;;;;;5027034;28;20037;-80
2021/04/08 08:31:57;;;;;;;10.40;2.00;;;5.60;93.30;;;;;;5027298;28;20045;-80
2021/04/08 08:34:34;;;;;;;9.98;1.85;;;5.70;93.30;;;;;;5028941;28;20287;-80
2021/04/08 08:37:02;;;;;;;10.88;2.03;;;5.70;93.20;;;;;;5028842;28;20040;-81
2021/04/08 08:39:34;;;;;;;7.90;1.80;;;5.70;93.00;;;;;;5011389;28;20148;-80
2021/04/08 08:42:03;;;;;;;9.98;1.90;;;5.80;93.00;;;;;;5011176;28;20537;-80
2021/04/08 08:44:30;;;;;;;6.28;1.73;;;5.90;92.30;;;;;;5027861;28;20571;-80
2021/04/08 08:47:03;;;;;;;5.47;1.48;;;5.90;92.10;;;;;;5021871;28;20052;-80
2021/04/08 08:49:34;;;;;;;13.85;1.85;;;6.00;91.80;;;;;;5046935;28;20035;-80
2021/04/08 08:52:01;;;;;;;9.68;2.25;;;6.00;91.60;;;;;;5030530;28;20029;-80
2021/04/08 08:54:29;;;;;;;12.23;1.90;;;6.10;90.50;;;;;;5046496;28;20468;-80
2021/04/08 08:56:57;;;;;;;12.40;1.98;;;6.10;90.20;;;;;;5030062;28;20038;-80
2021/04/08 08:59:25;;;;;;;5.78;2.03;;;6.10;90.60;;;;;;5023222;28;20186;-80
2021/04/08 09:01:52;;;;;;;16.15;4.47;;;6.20;90.20;;;;;;5046974;28;20503;-80
2021/04/08 09:04:18;;;;;;;10.60;2.30;;;6.20;89.80;;;;;;5044819;28;20573;-80
2021/04/08 09:06:45;;;;;;;9.95;2.00;;;6.20;90.00;;;;;;5041428;28;20053;-80
2021/04/08 09:09:14;;;;;;;3.50;1.35;;;6.20;90.00;;;;;;5031188;28;20076;-80
2021/04/08 09:11:42;;;;;;;7.15;1.88;;;6.20;89.20;;;;;;5063626;28;20041;-80
2021/04/08 09:14:13;;;;;;;7.70;2.03;;;6.20;89.80;;;;;;5067698;28;20037;-80
2021/04/08 09:16:47;;;;;;;8.02;2.05;;;6.30;88.90;;;;;;5050402;28;20033;-80
2021/04/08 09:19:23;;;;;;;4.68;1.83;;;6.20;89.40;;;;;;5017966;28;20033;-80
2021/04/08 09:21:51;;;;;;;10.52;1.98;;;6.30;88.30;;;;;;5052464;28;20041;-80
2021/04/08 09:24:20;;;;;;;5.75;2.00;;;6.30;88.80;;;;;;5052157;28;20068;-80
2021/04/08 09:26:56;;;;;;;3.95;1.60;;;6.20;87.10;;;;;;5040212;28;20115;-81
2021/04/08 09:29:33;;;;;;;7.05;2.03;;;6.20;86.40;;;;;;5047257;28;20083;-80
2021/04/08 09:32:22;;;;;;;9.63;2.55;;;6.20;88.10;;;;;;5030762;28;20041;-80
2021/04/08 09:35:03;;;;;;;10.52;2.15;;;6.20;86.80;;;;;;5014929;28;20030;-80
2021/04/08 09:37:51;;;;;;;8.23;1.80;;;6.20;86.50;;;;;;5050656;28;20039;-80
2021/04/08 09:40:22;;;;;;;7.85;1.77;;;6.30;85.00;;;;;;5028138;28;20053;-80
2021/04/08 09:42:55;;;;;;;6.72;2.42;;;6.30;86.70;;;;;;5052109;28;20064;-80
2021/04/08 09:45:21;;;;;;;9.68;2.20;;;6.50;85.60;;;;;;5051647;28;20056;-80
2021/04/08 09:48:05;;;;;;;7.47;2.30;;;6.50;86.10;;;;;;5033896;28;20048;-80
2021/04/08 09:50:46;;;;;;;8.13;3.00;;;6.60;83.40;;;;;;5063854;28;20049;-80
2021/04/08 09:53:13;;;;;;;9.38;2.50;;;6.70;85.10;;;;;;5033240;28;20503;-80
2021/04/08 09:55:41;;;;;;;5.60;2.22;;;6.80;83.20;;;;;;5017332;28;20489;-80
2021/04/08 09:58:19;;;;;;;8.25;1.88;;;6.90;83.40;;;;;;5050935;28;20043;-81
2021/04/08 10:00:45;;;;;;;7.43;2.88;;;6.90;77.40;;;;;;5051463;28;20055;-80
2021/04/08 10:03:11;;;;;;;6.55;2.35;;;6.90;74.80;;;;;;5033748;28;20041;-80
2021/04/08 10:05:40;;;;;;;5.57;2.15;;;6.90;79.40;;;;;;5049920;28;20049;-80
2021/04/08 10:08:10;;;;;;;4.75;2.53;;;7.00;76.50;;;;;;5050377;28;20404;-80
2021/04/08 10:10:36;;;;;;;5.05;2.40;;;7.00;77.60;;;;;;5051411;28;20041;-81
2021/04/08 10:13:30;;;;;;;6.13;3.17;;;7.10;74.70;;;;;;5049960;28;20552;-81
2021/04/08 10:16:16;;;;;;;8.63;2.60;;;7.10;72.90;;;;;;5033805;28;20076;-80
2021/04/08 10:19:02;;;;;;;7.53;2.65;;;7.20;74.30;;;;;;5049739;28;20557;-80
2021/04/08 10:21:40;;;;;;;4.60;2.83;;;7.10;74.10;;;;;;5004752;28;20497;-80
2021/04/08 10:24:24;;;;;;;6.60;3.20;;;7.10;76.20;;;;;;5050105;28;20053;-80
2021/04/08 10:27:19;;;;;;;8.73;2.88;;;7.20;76.10;;;;;;5022686;28;20056;-80
2021/04/08 10:30:15;;;;;;;4.38;2.45;;;7.30;75.70;;;;;;5050292;28;20224;-81
2021/04/08 10:32:42;;;;;;;7.78;3.33;;;7.30;75.00;;;;;;5049766;28;20140;-81
2021/04/08 10:35:18;;;;;;;9.20;3.22;;;7.30;77.40;;;;;;5049702;28;20037;-81
2021/04/08 10:37:44;;;;;;;12.35;3.53;;;7.30;73.30;;;;;;5033137;28;20033;-80
2021/04/08 10:40:10;;;;;;;7.32;3.15;;;7.30;75.60;;;;;;5049529;28;20495;-80
2021/04/08 10:42:36;;;;;;;5.53;3.10;;;7.30;76.40;;;;;;5049539;28;20076;-80
2021/04/08 10:45:08;;;;;;;8.15;3.15;;;7.20;72.10;;;;;;5049699;28;20068;-81
2021/04/08 10:47:36;;;;;;;5.87;3.33;;;7.30;74.80;;;;;;5050687;28;20036;-80
2021/04/08 10:50:04;;;;;;;9.32;4.18;;;7.30;76.40;;;;;;5032827;28;20106;-80
2021/04/08 10:52:36;;;;;;;10.65;3.97;;;7.30;76.40;;;;;;5050152;28;20037;-81
2021/04/08 10:55:11;;;;;;;11.32;3.92;;;7.30;75.10;;;;;;5038764;28;20041;-80
2021/04/08 10:57:38;;;;;;;8.45;3.88;;;7.30;73.50;;;;;;5026930;28;20096;-80
2021/04/08 11:00:05;;;;;;;7.47;4.30;;;7.30;74.20;;;;;;5050115;28;20094;-80
2021/04/08 11:02:34;;;;;;;8.68;4.90;;;7.30;73.70;;;;;;5013231;28;20048;-80
2021/04/08 11:05:03;;;;;;;8.90;5.07;;;7.20;74.40;;;;;;5030709;28;20063;-80
2021/04/08 11:07:38;;;;;;;10.18;5.07;;;7.20;74.60;;;;;;5047322;28;20045;-80
2021/04/08 11:10:34;;;;;;;9.70;5.20;;;7.30;73.20;;;;;;5028429;28;20485;-80
2021/04/08 11:13:01;;;;;;;10.13;5.75;;;7.40;72.90;;;;;;5048371;28;20217;-80
2021/04/08 11:15:29;;;;;;;6.63;5.43;;;7.40;72.50;;;;;;5014260;28;20099;-80
2021/04/08 11:17:58;;;;;;;9.95;5.32;;;7.40;73.20;;;;;;5048277;28;20033;-80
2021/04/08 11:20:37;;;;;;;8.45;6.18;;;7.50;70.90;;;;;;5014120;28;20044;-81
2021/04/08 11:23:04;;;;;;;10.60;5.72;;;7.60;71.80;;;;;;5042778;28;20593;-83
2021/04/08 11:25:30;;;;;;;11.07;5.90;;;7.40;73.40;;;;;;5049271;28;20037;-81
2021/04/08 11:28:00;;;;;;;7.72;5.90;;;7.40;72.80;;;;;;5030601;28;20044;-81
2021/04/08 11:30:27;;;;;;;8.00;5.45;;;7.40;70.80;;;;;;5029660;28;20485;-81
2021/04/08 11:32:54;;;;;;;7.60;6.10;;;7.40;71.10;;;;;;5039023;28;20119;-81
2021/04/08 11:35:45;;;;;;;7.32;5.43;;;7.40;71.10;;;;;;5048090;28;20029;-81
2021/04/08 11:38:11;;;;;;;8.48;5.28;;;7.50;70.10;;;;;;5063245;28;20037;-81
2021/04/08 11:40:38;;;;;;;8.77;5.00;;;7.50;69.50;;;;;;5041372;28;20087;-81
2021/04/08 11:43:32;;;;;;;5.78;3.80;;;7.50;70.40;;;;;;5029218;28;20457;-82
2021/04/08 11:46:00;;;;;;;6.35;3.53;;;7.60;68.60;;;;;;5046973;28;20067;-83
2021/04/08 11:48:39;;;;;;;8.60;4.10;;;7.70;69.20;;;;;;5048618;28;20499;-83
2021/04/08 11:51:06;;;;;;;7.47;5.10;;;7.60;69.70;;;;;;5026734;28;20116;-84
2021/04/08 11:53:40;;;;;;;8.93;4.97;;;7.60;71.90;;;;;;5028200;28;20029;-84
2021/04/08 11:56:25;;;;;;;7.53;4.47;;;7.60;71.30;;;;;;5010540;28;20033;-84
2021/04/08 11:58:51;;;;;;;4.97;3.58;;;7.80;68.50;;;;;;5011630;28;20037;-84
2021/04/08 12:01:19;;;;;;;6.05;4.20;;;7.90;70.60;;;;;;5029379;28;20578;-84
2021/04/08 12:03:50;;;;;;;6.28;3.63;;;8.00;70.90;;;;;;5028348;28;20132;-85
2021/04/08 12:06:21;;;;;;;7.68;4.28;;;8.20;69.40;;;;;;5012002;28;20073;-84
2021/04/08 12:08:51;;;;;;;11.27;6.28;;;8.30;70.10;;;;;;5028982;28;20544;-84
2021/04/08 12:11:19;;;;;;;11.52;6.78;;;8.40;68.40;;;;;;5011792;28;20132;-85
2021/04/08 12:14:05;;;;;;;10.63;6.13;;;8.50;69.60;;;;;;4996582;28;20420;-83
2021/04/08 12:16:32;;;;;;;8.63;6.38;;;8.60;69.60;;;;;;5012984;28;20470;-84
2021/04/08 12:18:58;;;;;;;11.13;7.20;;;8.70;69.10;;;;;;5028869;28;20128;-84
2021/04/08 12:21:26;;;;;;;8.70;7.55;;;8.80;71.20;;;;;;5030368;28;20038;-84
2021/04/08 12:23:52;;;;;;;9.13;5.90;;;8.80;69.20;;;;;;5026453;28;20041;-84
2021/04/08 12:26:32;;;;;;;11.73;6.47;;;8.90;68.40;;;;;;5048775;28;20051;-83
2021/04/08 12:28:58;;;;;;;11.02;6.47;;;8.90;67.00;;;;;;5031928;28;20041;-83
2021/04/08 12:31:24;;;;;;;9.93;6.45;;;8.90;70.50;;;;;;5032093;28;20113;-83
2021/04/08 12:33:50;;;;;;;7.57;4.68;;;8.90;71.10;;;;;;5048263;28;20029;-83
2021/04/08 12:36:16;;;;;;;6.30;3.97;;;8.90;71.40;;;;;;5048711;28;20048;-83
2021/04/08 12:38:42;;;;;;;6.13;3.42;;;8.90;69.90;;;;;;5031873;28;20041;-83
2021/04/08 12:41:09;;;;;;;6.25;3.80;;;8.90;69.60;;;;;;5031586;28;20500;-83
2021/04/08 12:43:35;;;;;;;5.43;3.65;;;8.90;69.60;;;;;;5048150;28;20132;-83
2021/04/08 12:46:02;;;;;;;5.13;2.20;;;8.90;69.00;;;;;;5022232;28;20072;-83
2021/04/08 12:48:28;;;;;;;4.13;2.88;;;8.90;63.20;;;;;;5006386;28;20045;-84
2021/04/08 12:50:56;;;;;;;4.55;2.75;;;8.80;68.10;;;;;;5045410;28;20123;-81
2021/04/08 12:53:23;;;;;;;5.50;2.83;;;8.80;68.00;;;;;;5026830;28;20030;-82
2021/04/08 12:55:51;;;;;;;6.03;2.80;;;8.70;69.00;;;;;;5022535;28;20040;-82
2021/04/08 12:58:16;;;;;;;7.28;3.58;;;8.70;67.60;;;;;;5047162;28;20057;-83
2021/04/08 13:00:42;;;;;;;7.03;2.70;;;8.60;67.10;;;;;;5049060;28;20065;-83
2021/04/08 13:03:11;;;;;;;6.25;2.90;;;8.60;69.70;;;;;;5040882;28;20509;-83
2021/04/08 13:05:38;;;;;;;7.30;2.78;;;8.70;68.90;;;;;;5048327;28;20152;-83